createdAt,value
2022-09-09T00:01:28.406Z,100444.31
2022-09-09T00:04:00.576Z,100447.00
2022-09-09T00:06:56.359Z,100447.97
2022-09-09T00:09:28.519Z,100446.72
2022-09-09T00:12:18.002Z,100438.72
2022-09-09T00:15:05.998Z,100455.66
2022-09-09T00:17:57.978Z,100440.19
2022-09-09T00:20:43.077Z,100443.78
2022-09-09T00:23:28.697Z,100437.47
2022-09-09T00:26:14.489Z,100439.03
2022-09-09T00:28:58.872Z,100439.50
2022-09-09T00:31:29.526Z,100442.22
2022-09-09T00:34:01.926Z,100440.75
2022-09-09T00:36:29.995Z,100433.44
2022-09-09T00:39:00.277Z,100429.06
2022-09-09T00:42:04.796Z,100431.84
2022-09-09T00:44:36.422Z,100429.31
2022-09-09T00:47:19.665Z,100415.69
2022-09-09T00:50:01.141Z,100410.44
2022-09-09T00:52:40.439Z,100409.84
2022-09-09T00:55:06.872Z,100415.63
2022-09-09T00:57:35.874Z,100415.63
2022-09-09T01:00:25.808Z,100415.84
2022-09-09T01:03:11.325Z,100414.66
2022-09-09T01:05:51.936Z,100416.56
2022-09-09T01:08:32.433Z,100415.63
2022-09-09T01:11:00.276Z,100422.50
2022-09-09T01:13:34.644Z,100418.13
2022-09-09T01:16:04.440Z,100421.81
2022-09-09T01:18:37.334Z,100418.69
2022-09-09T01:21:16.109Z,100420.41
2022-09-09T01:24:06.821Z,100418.91
2022-09-09T01:26:42.311Z,100426.19
2022-09-09T01:29:11.015Z,100425.88
2022-09-09T01:31:41.872Z,100423.91
2022-09-09T01:34:16.266Z,100420.91
2022-09-09T01:36:48.846Z,100417.91
2022-09-09T01:39:15.457Z,100414.38
2022-09-09T01:41:41.875Z,100418.09
2022-09-09T01:44:09.565Z,100420.66
2022-09-09T01:46:36.456Z,100422.38
2022-09-09T01:49:06.673Z,100420.19
2022-09-09T01:51:33.183Z,100412.50
2022-09-09T01:53:59.636Z,100416.06
2022-09-09T01:56:44.244Z,100414.75
2022-09-09T01:59:25.413Z,100419.91
2022-09-09T02:02:15.914Z,100409.09
2022-09-09T02:04:45.864Z,100399.13
2022-09-09T02:07:43.409Z,100400.09
2022-09-09T02:10:12.332Z,100399.44
2022-09-09T02:12:46.897Z,100398.28
2022-09-09T02:15:42.740Z,100391.28
2022-09-09T02:18:14.248Z,100395.03
2022-09-09T02:20:43.035Z,100392.78
2022-09-09T02:23:11.813Z,100389.06
2022-09-09T02:25:42.823Z,100386.34
2022-09-09T02:28:13.660Z,100384.06
2022-09-09T02:30:41.187Z,100386.94
2022-09-09T02:33:11.508Z,100393.63
2022-09-09T02:35:39.490Z,100386.72
2022-09-09T02:38:11.410Z,100388.28
2022-09-09T02:40:37.817Z,100383.16
2022-09-09T02:43:04.439Z,100374.22
2022-09-09T02:46:09.340Z,100383.91
2022-09-09T02:48:40.935Z,100380.53
2022-09-09T02:51:16.732Z,100381.66
2022-09-09T02:53:50.722Z,100379.19
2022-09-09T02:56:19.519Z,100380.19
2022-09-09T02:58:47.138Z,100385.72
2022-09-09T03:01:13.682Z,100382.41
2022-09-09T03:03:40.833Z,100382.28
2022-09-09T03:06:07.230Z,100389.72
2022-09-09T03:08:33.671Z,100390.19
2022-09-09T03:11:02.305Z,100390.22
2022-09-09T03:13:28.782Z,100398.72
2022-09-09T03:15:55.151Z,100390.44
2022-09-09T03:18:22.213Z,100396.19
2022-09-09T03:20:51.981Z,100392.00
2022-09-09T03:23:18.324Z,100391.53
2022-09-09T03:25:49.459Z,100394.47
2022-09-09T03:28:16.232Z,100392.69
2022-09-09T03:30:42.633Z,100392.28
2022-09-09T03:33:09.048Z,100390.84
2022-09-09T03:35:35.411Z,100390.00
2022-09-09T03:38:01.787Z,100395.84
2022-09-09T03:40:28.285Z,100389.03
2022-09-09T03:42:54.664Z,100390.69
2022-09-09T03:45:21.197Z,100396.31
2022-09-09T03:47:47.568Z,100398.13
2022-09-09T03:50:13.895Z,100394.03
2022-09-09T03:52:43.147Z,100393.75
2022-09-09T03:55:10.162Z,100394.97
2022-09-09T03:57:36.919Z,100387.50
2022-09-09T04:00:08.633Z,100395.28
2022-09-09T04:02:35.314Z,100391.47
2022-09-09T04:05:02.056Z,100384.63
2022-09-09T04:07:29.358Z,100389.59
2022-09-09T04:09:55.687Z,100380.38
2022-09-09T04:12:23.339Z,100381.22
2022-09-09T04:14:49.940Z,100378.63
2022-09-09T04:17:16.389Z,100376.00
2022-09-09T04:19:43.319Z,100378.56
2022-09-09T04:22:10.355Z,100381.03
2022-09-09T04:24:37.742Z,100373.06
2022-09-09T04:27:04.290Z,100371.72
2022-09-09T04:29:30.675Z,100366.84
2022-09-09T04:31:57.040Z,100367.25
2022-09-09T04:34:23.542Z,100370.34
2022-09-09T04:36:49.945Z,100364.44
2022-09-09T04:39:16.304Z,100364.13
2022-09-09T04:41:42.695Z,100368.91
2022-09-09T04:44:09.162Z,100363.88
2022-09-09T04:46:35.503Z,100364.53
2022-09-09T04:49:01.926Z,100361.56
2022-09-09T04:51:29.167Z,100358.84
2022-09-09T04:53:55.516Z,100354.31
2022-09-09T04:56:22.008Z,100361.88
2022-09-09T04:58:48.425Z,100352.47
2022-09-09T05:01:20.510Z,100356.69
2022-09-09T05:03:47.549Z,100351.84
2022-09-09T05:06:16.749Z,100350.38
2022-09-09T05:08:44.380Z,100353.50
2022-09-09T05:11:24.360Z,100361.47
2022-09-09T05:13:51.608Z,100365.44
2022-09-09T05:16:18.837Z,100359.44
2022-09-09T05:18:46.990Z,100351.69
2022-09-09T05:21:14.731Z,100351.25
2022-09-09T05:23:41.652Z,100354.03
2022-09-09T05:26:17.015Z,100352.69
2022-09-09T05:28:44.046Z,100350.75
2022-09-09T05:31:13.722Z,100340.06
2022-09-09T05:33:42.099Z,100339.97
2022-09-09T05:36:14.305Z,100348.91
2022-09-09T05:38:42.041Z,100341.81
2022-09-09T05:41:10.512Z,100346.00
2022-09-09T05:43:36.891Z,100339.09
2022-09-09T05:46:11.408Z,100330.94
2022-09-09T05:48:39.897Z,100336.78
2022-09-09T05:51:09.494Z,100331.13
2022-09-09T05:53:35.973Z,100333.06
2022-09-09T05:56:04.775Z,100334.63
2022-09-09T05:58:35.533Z,100337.94
2022-09-09T06:01:14.324Z,100348.63
2022-09-09T06:03:42.502Z,100347.84
2022-09-09T06:06:12.187Z,100358.00
2022-09-09T06:08:41.627Z,100353.66
2022-09-09T06:11:17.680Z,100356.47
2022-09-09T06:13:44.532Z,100364.19
2022-09-09T06:16:12.930Z,100363.56
2022-09-09T06:18:40.423Z,100372.38
2022-09-09T06:21:10.338Z,100366.09
2022-09-09T06:23:36.769Z,100358.78
2022-09-09T06:26:03.119Z,100356.47
2022-09-09T06:28:29.582Z,100364.25
2022-09-09T06:31:03.960Z,100361.06
2022-09-09T06:33:40.750Z,100356.47
2022-09-09T06:36:08.791Z,100354.59
2022-09-09T06:38:35.160Z,100356.09
2022-09-09T06:41:02.730Z,100354.81
2022-09-09T06:43:30.020Z,100349.41
2022-09-09T06:46:01.790Z,100357.97
2022-09-09T06:48:31.904Z,100350.28
2022-09-09T06:51:07.285Z,100349.84
2022-09-09T06:53:35.528Z,100340.25
2022-09-09T06:56:32.124Z,100340.06
2022-09-09T06:59:04.768Z,100340.47
2022-09-09T07:01:35.979Z,100334.41
2022-09-09T07:04:05.361Z,100344.88
2022-09-09T07:06:33.863Z,100339.25
2022-09-09T07:09:04.751Z,100338.44
2022-09-09T07:11:34.012Z,100345.59
2022-09-09T07:14:01.362Z,100335.72
2022-09-09T07:16:28.723Z,100344.97
2022-09-09T07:18:58.855Z,100333.88
2022-09-09T07:21:29.426Z,100330.50
2022-09-09T07:23:56.071Z,100337.63
2022-09-09T07:26:26.142Z,100343.28
2022-09-09T07:28:52.871Z,100334.22
2022-09-09T07:31:22.862Z,100334.19
2022-09-09T07:33:49.751Z,100342.13
2022-09-09T07:36:32.542Z,100346.19
2022-09-09T07:39:02.867Z,100347.69
2022-09-09T07:41:41.593Z,100356.28
2022-09-09T07:44:11.743Z,100340.28
2022-09-09T07:46:40.692Z,100349.16
2022-09-09T07:49:07.702Z,100344.09
2022-09-09T07:51:37.128Z,100355.44
2022-09-09T07:54:07.145Z,100348.53
2022-09-09T07:56:34.304Z,100354.59
2022-09-09T07:59:07.332Z,100356.25
2022-09-09T08:01:40.741Z,100347.88
2022-09-09T08:04:16.580Z,100356.03
2022-09-09T08:06:53.890Z,100354.16
2022-09-09T08:09:21.647Z,100360.06
2022-09-09T08:11:48.449Z,100361.09
2022-09-09T08:14:15.193Z,100369.25
2022-09-09T08:16:45.082Z,100362.34
2022-09-09T08:19:12.111Z,100369.66
2022-09-09T08:21:41.004Z,100374.28
2022-09-09T08:24:08.911Z,100362.13
2022-09-09T08:26:54.479Z,100365.69
2022-09-09T08:29:21.115Z,100374.50
2022-09-09T08:31:50.179Z,100363.59
2022-09-09T08:34:17.254Z,100371.56
2022-09-09T08:36:45.873Z,100373.25
2022-09-09T08:39:14.971Z,100377.44
2022-09-09T08:42:01.540Z,100375.75
2022-09-09T08:44:35.713Z,100374.28
2022-09-09T08:47:30.525Z,100372.34
2022-09-09T08:50:18.904Z,100378.00
2022-09-09T08:53:03.657Z,100373.63
2022-09-09T08:55:49.242Z,100376.56
2022-09-09T08:58:19.539Z,100379.69
2022-09-09T09:01:10.799Z,100378.19
2022-09-09T09:03:55.786Z,100384.69
2022-09-09T09:06:31.619Z,100381.59
2022-09-09T09:09:18.191Z,100381.13
2022-09-09T09:11:52.315Z,100387.00
2022-09-09T09:14:24.288Z,100381.81
2022-09-09T09:17:13.873Z,100391.88
2022-09-09T09:19:42.298Z,100394.19
2022-09-09T09:22:11.639Z,100387.66
2022-09-09T09:24:47.087Z,100391.00
2022-09-09T09:27:26.682Z,100394.75
2022-09-09T09:30:21.605Z,100392.03
2022-09-09T09:33:03.407Z,100384.66
2022-09-09T09:35:29.885Z,100392.38
2022-09-09T09:40:58.707Z,100392.59
2022-09-09T09:43:33.682Z,100393.81
2022-09-09T09:46:16.592Z,100394.38
2022-09-09T09:48:43.786Z,100391.25
2022-09-09T09:51:14.810Z,100394.25
2022-09-09T09:53:41.229Z,100391.06
2022-09-09T09:56:12.922Z,100399.91
2022-09-09T09:58:51.281Z,100391.75
2022-09-09T10:01:28.815Z,100392.84
2022-09-09T10:04:00.076Z,100385.88
2022-09-09T10:06:38.448Z,100374.97
2022-09-09T10:09:41.536Z,100390.34
2022-09-09T10:12:45.121Z,100391.19
2022-09-09T10:15:33.019Z,100389.91
2022-09-09T10:18:17.910Z,100390.09
2022-09-09T10:21:10.117Z,100389.25
2022-09-09T10:24:12.562Z,100392.66
2022-09-09T10:26:52.075Z,100400.00
2022-09-09T10:29:39.531Z,100420.38
2022-09-09T10:32:11.824Z,100422.09
2022-09-09T10:34:53.285Z,100410.56
2022-09-09T10:37:39.107Z,100411.59
2022-09-09T10:40:27.592Z,100413.47
2022-09-09T10:43:02.074Z,100417.88
2022-09-09T10:45:49.456Z,100406.34
2022-09-09T10:48:34.646Z,100413.47
2022-09-09T10:51:18.686Z,100414.53
2022-09-09T10:54:04.213Z,100408.66
2022-09-09T10:56:31.615Z,100400.69
2022-09-09T10:59:05.663Z,100397.94
2022-09-09T11:01:42.954Z,100401.47
2022-09-09T11:04:20.160Z,100403.97
2022-09-09T11:06:53.396Z,100413.47
2022-09-09T11:09:25.877Z,100402.78
2022-09-09T11:11:57.017Z,100404.88
2022-09-09T11:14:35.447Z,100412.22
2022-09-09T11:17:16.235Z,100403.22
2022-09-09T11:19:44.926Z,100394.28
2022-09-09T11:22:49.162Z,100397.94
2022-09-09T11:25:17.904Z,100396.00
2022-09-09T11:27:59.473Z,100391.47
2022-09-09T11:31:02.811Z,100385.09
2022-09-09T11:33:29.348Z,100393.72
2022-09-09T11:36:07.266Z,100389.59
2022-09-09T11:38:47.765Z,100391.53
2022-09-09T11:41:20.984Z,100386.53
2022-09-09T11:43:52.905Z,100380.72
2022-09-09T11:46:34.831Z,100382.41
2022-09-09T11:49:05.721Z,100388.72
2022-09-09T11:51:33.832Z,100385.44
2022-09-09T11:54:31.065Z,100378.28
2022-09-09T11:56:58.245Z,100384.66
2022-09-09T11:59:28.182Z,100379.44
2022-09-09T12:01:58.142Z,100387.81
2022-09-09T12:04:24.539Z,100381.22
2022-09-09T12:07:03.919Z,100382.47
2022-09-09T12:09:47.406Z,100373.72
2022-09-09T12:12:13.834Z,100385.91
2022-09-09T12:14:55.198Z,100400.38
2022-09-09T12:17:27.005Z,100392.00
2022-09-09T12:20:14.460Z,100386.72
2022-09-09T12:22:58.763Z,100383.28
2022-09-09T12:25:56.685Z,100382.06
2022-09-09T12:28:58.577Z,100387.19
2022-09-09T12:31:27.564Z,100379.56
2022-09-09T12:33:54.102Z,100373.53
2022-09-09T12:36:29.624Z,100388.38
2022-09-09T12:39:00.680Z,100371.13
2022-09-09T12:41:29.859Z,100379.69
2022-09-09T12:44:07.483Z,100374.66
2022-09-09T12:46:41.366Z,100366.00
2022-09-09T12:49:28.708Z,100374.81
2022-09-09T12:51:56.298Z,100371.44
2022-09-09T12:54:22.676Z,100362.16
2022-09-09T12:56:50.599Z,100363.34
2022-09-09T12:59:46.689Z,100360.53
2022-09-09T13:02:33.483Z,100371.94
2022-09-09T13:05:15.400Z,100366.34
2022-09-09T13:07:41.888Z,100365.19
2022-09-09T13:10:15.312Z,100369.56
2022-09-09T13:12:48.873Z,100363.84
2022-09-09T13:15:22.127Z,100367.44
2022-09-09T13:17:54.142Z,100365.47
2022-09-09T13:20:21.421Z,100365.53
2022-09-09T13:22:51.113Z,100373.50
2022-09-09T13:25:17.797Z,100390.91
2022-09-09T13:28:06.251Z,100362.81
2022-09-09T13:30:41.103Z,100367.38
2022-09-09T13:33:10.248Z,100364.38
2022-09-09T13:35:48.425Z,100358.09
2022-09-09T13:38:18.287Z,100352.16
2022-09-09T13:40:55.981Z,100363.44
2022-09-09T13:43:24.073Z,100355.44
2022-09-09T13:45:59.007Z,100346.28
2022-09-09T13:48:26.753Z,100346.28
2022-09-09T13:51:00.837Z,100345.94
2022-09-09T13:53:27.955Z,100349.06
2022-09-09T13:55:54.859Z,100349.28
2022-09-09T13:58:23.681Z,100353.69
2022-09-09T14:00:50.878Z,100359.66
2022-09-09T14:03:17.579Z,100357.06
2022-09-09T14:05:45.860Z,100360.13
2022-09-09T14:08:22.629Z,100358.94
2022-09-09T14:10:49.332Z,100355.09
2022-09-09T14:13:16.558Z,100354.31
2022-09-09T14:15:42.968Z,100352.28
2022-09-09T14:18:13.403Z,100347.28
2022-09-09T14:20:39.965Z,100356.09
2022-09-09T14:23:06.413Z,100344.78
2022-09-09T14:25:32.758Z,100348.88
2022-09-09T14:27:59.148Z,100350.84
2022-09-09T14:30:25.483Z,100346.81
2022-09-09T14:32:51.848Z,100340.06
2022-09-09T14:35:19.272Z,100344.03
2022-09-09T14:37:45.605Z,100351.00
2022-09-09T14:40:12.362Z,100345.88
2022-09-09T14:42:38.782Z,100349.13
2022-09-09T14:45:05.786Z,100348.34
2022-09-09T14:47:32.295Z,100339.44
2022-09-09T14:49:58.686Z,100348.00
2022-09-09T14:52:25.112Z,100344.44
2022-09-09T14:54:51.476Z,100348.47
2022-09-09T14:57:18.075Z,100354.75
2022-09-09T14:59:44.399Z,100341.44
2022-09-09T15:02:10.936Z,100346.31
2022-09-09T15:04:37.340Z,100327.19
2022-09-09T15:07:04.164Z,100329.38
2022-09-09T15:09:30.945Z,100337.88
2022-09-09T15:11:57.291Z,100337.69
2022-09-09T15:14:25.919Z,100333.16
2022-09-09T15:16:52.903Z,100335.53
2022-09-09T15:19:19.287Z,100344.72
2022-09-09T15:21:45.689Z,100345.88
2022-09-09T15:24:12.142Z,100347.69
2022-09-09T15:26:39.358Z,100343.94
2022-09-09T15:29:05.848Z,100355.81
2022-09-09T15:31:33.086Z,100348.81
2022-09-09T15:34:04.516Z,100357.03
2022-09-09T15:36:33.477Z,100361.00
2022-09-09T15:39:01.048Z,100362.25
2022-09-09T15:41:28.287Z,100355.94
2022-09-09T15:43:59.827Z,100350.19
2022-09-09T15:46:36.954Z,100355.94
2022-09-09T15:49:22.986Z,100351.41
2022-09-09T15:52:04.396Z,100351.06
2022-09-09T15:54:39.722Z,100355.38
2022-09-09T15:57:09.640Z,100364.63
2022-09-09T15:59:36.060Z,100366.69
2022-09-09T16:02:02.657Z,100363.78
2022-09-09T16:04:29.913Z,100362.34
2022-09-09T16:07:02.261Z,100366.03
2022-09-09T16:09:29.123Z,100366.69
2022-09-09T16:12:01.916Z,100365.66
2022-09-09T16:14:29.115Z,100364.03
2022-09-09T16:16:56.660Z,100360.41
2022-09-09T16:19:23.156Z,100363.38
2022-09-09T16:21:50.886Z,100364.22
2022-09-09T16:24:19.977Z,100363.78
2022-09-09T16:26:53.197Z,100378.81
2022-09-09T16:29:20.065Z,100369.56
2022-09-09T16:31:47.667Z,100371.25
2022-09-09T16:34:15.689Z,100379.00
2022-09-09T16:36:43.515Z,100384.34
2022-09-09T16:39:12.862Z,100390.44
2022-09-09T16:41:41.361Z,100404.59
2022-09-09T16:44:10.542Z,100401.47
2022-09-09T16:46:40.145Z,100400.84
2022-09-09T16:49:09.093Z,100407.19
2022-09-09T16:51:43.947Z,100414.16
2022-09-09T16:54:11.261Z,100420.91
2022-09-09T16:56:42.143Z,100406.44
2022-09-09T16:59:12.244Z,100407.03
2022-09-09T17:01:41.713Z,100404.94
2022-09-09T17:04:11.988Z,100403.06
2022-09-09T17:06:39.064Z,100407.25
2022-09-09T17:09:08.703Z,100399.09
2022-09-09T17:11:36.442Z,100398.94
2022-09-09T17:14:04.270Z,100389.50
2022-09-09T17:16:35.138Z,100392.50
2022-09-09T17:19:02.282Z,100395.03
2022-09-09T17:21:29.680Z,100395.63
2022-09-09T17:23:57.155Z,100397.28
2022-09-09T17:26:27.723Z,100400.69
2022-09-09T17:28:59.399Z,100405.34
2022-09-09T17:31:27.561Z,100410.00
2022-09-09T17:33:54.158Z,100413.34
2022-09-09T17:36:26.106Z,100409.78
2022-09-09T17:38:53.037Z,100413.34
2022-09-09T17:41:28.567Z,100411.88
2022-09-09T17:43:55.618Z,100416.50
2022-09-09T17:46:28.322Z,100424.31
2022-09-09T17:49:00.968Z,100424.94
2022-09-09T17:51:30.611Z,100425.81
2022-09-09T17:54:02.758Z,100435.44
2022-09-09T17:56:31.787Z,100437.75
2022-09-09T17:59:00.416Z,100427.50
2022-09-09T18:01:32.256Z,100438.66
2022-09-09T18:04:05.351Z,100433.59
2022-09-09T18:06:37.557Z,100435.94
2022-09-09T18:09:06.885Z,100441.59
2022-09-09T18:11:38.571Z,100440.53
2022-09-09T18:14:06.018Z,100445.81
2022-09-09T18:16:36.604Z,100447.47
2022-09-09T18:19:09.477Z,100439.72
2022-09-09T18:21:36.269Z,100445.56
2022-09-09T18:24:05.515Z,100456.69
2022-09-09T18:26:33.726Z,100462.56
2022-09-09T18:29:05.777Z,100466.13
2022-09-09T18:31:33.073Z,100470.75
2022-09-09T18:34:03.533Z,100474.13
2022-09-09T18:36:34.036Z,100474.09
2022-09-09T18:39:02.857Z,100482.91
2022-09-09T18:41:32.645Z,100481.41
2022-09-09T18:44:01.789Z,100487.50
2022-09-09T18:46:29.635Z,100487.50
2022-09-09T18:48:56.785Z,100486.88
2022-09-09T18:51:25.809Z,100487.09
2022-09-09T18:54:16.760Z,100486.25
2022-09-09T18:56:44.139Z,100487.94
2022-09-09T18:59:13.936Z,100488.13
2022-09-09T19:01:40.881Z,100492.97
2022-09-09T19:04:08.652Z,100496.50
2022-09-09T19:06:39.576Z,100505.53
2022-09-09T19:09:06.250Z,100510.13
2022-09-09T19:11:33.566Z,100514.75
2022-09-09T19:14:03.145Z,100518.97
2022-09-09T19:16:33.081Z,100515.59
2022-09-09T19:19:02.180Z,100518.53
2022-09-09T19:21:31.878Z,100513.06
2022-09-09T19:24:06.168Z,100519.81
2022-09-09T19:26:40.341Z,100510.16
2022-09-09T19:29:10.091Z,100517.69
2022-09-09T19:31:37.151Z,100521.66
2022-09-09T19:34:04.223Z,100525.00
2022-09-09T19:36:31.551Z,100532.50
2022-09-09T19:38:58.814Z,100537.78
2022-09-09T19:41:27.383Z,100538.13
2022-09-09T19:44:01.892Z,100539.66
2022-09-09T19:46:30.389Z,100543.44
2022-09-09T19:48:57.936Z,100546.16
2022-09-09T19:51:26.574Z,100554.13
2022-09-09T19:53:56.318Z,100544.22
2022-09-09T19:56:24.934Z,100550.09
2022-09-09T19:58:52.418Z,100548.00
2022-09-09T20:01:22.049Z,100549.66
2022-09-09T20:03:51.330Z,100552.16
2022-09-09T20:06:19.839Z,100552.16
2022-09-09T20:08:47.890Z,100544.63
2022-09-09T20:11:16.257Z,100551.94
2022-09-09T20:13:43.455Z,100564.06
2022-09-09T20:16:14.190Z,100564.69
2022-09-09T20:18:43.044Z,100557.38
2022-09-09T20:21:16.113Z,100568.84
2022-09-09T20:23:44.027Z,100568.03
2022-09-09T20:26:14.090Z,100567.19
2022-09-09T20:28:42.248Z,100568.44
2022-09-09T20:31:14.835Z,100561.53
2022-09-09T20:33:43.322Z,100563.84
2022-09-09T20:36:11.461Z,100565.31
2022-09-09T20:38:42.630Z,100560.91
2022-09-09T20:41:11.540Z,100557.53
2022-09-09T20:43:37.905Z,100564.41
2022-09-09T20:46:04.528Z,100559.59
2022-09-09T20:48:34.445Z,100565.25
2022-09-09T20:51:05.728Z,100562.09
2022-09-09T20:53:33.081Z,100570.25
2022-09-09T20:56:04.494Z,100569.16
2022-09-09T20:58:33.453Z,100556.03
2022-09-09T21:01:01.101Z,100569.44
2022-09-09T21:03:32.560Z,100560.41
2022-09-09T21:06:00.002Z,100568.59
2022-09-09T21:08:27.909Z,100569.00
2022-09-09T21:10:55.523Z,100564.16
2022-09-09T21:13:23.923Z,100565.66
2022-09-09T21:15:51.938Z,100569.28
2022-09-09T21:18:19.469Z,100573.88
2022-09-09T21:20:47.015Z,100571.63
2022-09-09T21:23:15.030Z,100576.44
2022-09-09T21:25:42.043Z,100584.16
2022-09-09T21:28:09.103Z,100573.03
2022-09-09T21:30:43.343Z,100581.00
2022-09-09T21:33:10.682Z,100583.91
2022-09-09T21:35:41.156Z,100577.19
2022-09-09T21:38:28.812Z,100576.75
2022-09-09T21:40:55.566Z,100580.78
2022-09-09T21:43:23.590Z,100573.84
2022-09-09T21:45:50.810Z,100578.47
2022-09-09T21:48:18.923Z,100573.88
2022-09-09T21:50:48.613Z,100571.78
2022-09-09T21:53:18.093Z,100569.13
2022-09-09T21:55:45.770Z,100579.44
2022-09-09T21:58:12.351Z,100578.28
2022-09-09T22:00:45.797Z,100573.44
2022-09-09T22:03:17.016Z,100570.78
2022-09-09T22:05:44.649Z,100563.28
2022-09-09T22:08:13.106Z,100564.94
2022-09-09T22:10:41.618Z,100567.88
2022-09-09T22:13:08.469Z,100555.97
2022-09-09T22:15:36.520Z,100563.66
2022-09-09T22:18:04.457Z,100565.16
2022-09-09T22:20:35.308Z,100572.31
2022-09-09T22:23:01.864Z,100572.53
2022-09-09T22:25:33.106Z,100577.13
2022-09-09T22:27:59.474Z,100577.25
2022-09-09T22:30:25.861Z,100573.53
2022-09-09T22:32:52.326Z,100571.81
2022-09-09T22:35:18.724Z,100573.53
2022-09-09T22:37:45.151Z,100571.03
2022-09-09T22:40:14.242Z,100563.66
2022-09-09T22:42:41.861Z,100568.47
2022-09-09T22:45:09.919Z,100562.56
2022-09-09T22:47:37.386Z,100572.47
2022-09-09T22:50:04.469Z,100572.59
2022-09-09T22:52:33.779Z,100565.75
2022-09-09T22:55:00.122Z,100567.97
2022-09-09T22:57:26.815Z,100564.59
2022-09-09T22:59:53.230Z,100564.03
2022-09-09T23:02:20.602Z,100569.88
2022-09-09T23:04:48.243Z,100569.31
2022-09-09T23:07:16.576Z,100566.06
2022-09-09T23:09:42.934Z,100575.16
2022-09-09T23:12:09.511Z,100576.28
2022-09-09T23:14:35.889Z,100574.09
2022-09-09T23:17:02.636Z,100576.03
2022-09-09T23:19:29.436Z,100578.69
2022-09-09T23:21:55.795Z,100577.47
2022-09-09T23:24:22.153Z,100582.09
2022-09-09T23:26:48.529Z,100588.19
2022-09-09T23:29:15.209Z,100590.91
2022-09-09T23:31:44.399Z,100591.34
2022-09-09T23:34:11.142Z,100587.59
2022-09-09T23:36:37.756Z,100585.88
2022-09-09T23:39:05.562Z,100590.88
2022-09-09T23:41:34.007Z,100590.09
2022-09-09T23:44:02.416Z,100591.09
2022-09-09T23:46:30.497Z,100591.75
2022-09-09T23:48:58.159Z,100598.88
2022-09-09T23:51:28.069Z,100595.56
2022-09-09T23:53:57.009Z,100589.94
2022-09-09T23:56:26.217Z,100590.34
2022-09-09T23:58:53.248Z,100588.88
